Orange8 — JL6278 — position and weather

sailwx.info

Track history (hours):
 
Tides and Currents Weather Stations Pressure Air Temp Water Temp Dewpoint Dewpoint Depression Visibility Wind Speed Wind Dir Waves Ship Positions

Orange8

Last reported at 2016-May-06 21:31 UTC. Time now 2016-May-06 22:28 UTC.
Position N 34°37' E 135°26'.

Length 164 m; draft 5 m.

Type: Passenger vessel. MMSI: 431501603.

Date/timePositionNaut miles runAvg speedWind from/ knotsBaromVisibWave heightAir tempDewpointWater temp
2016-May-06 21:31N 34°37' E 135°26'6 6.5
2016-May-06 20:33N 34°36' E 135°18'1817.7
2016-May-06 19:33N 34°36' E 134°57'1 0.0
2016-May-05 14:33N 34°37' E 134°56'1818.2
2016-May-05 13:34N 34°37' E 135°18'6 5.9
2016-May-05 12:31N 34°37' E 135°26'0 0.0
2016-May-05 11:31N 34°37' E 135°26'0 0.0
2016-May-05 10:31N 34°37' E 135°26'0 0.0
2016-May-05 09:30N 34°37' E 135°26'0 0.0
2016-May-05 08:31N 34°37' E 135°26'0 0.0
2016-May-05 07:30N 34°37' E 135°26'0 0.0
2016-May-05 06:25N 34°37' E 135°26'0 0.0
2016-May-05 05:31N 34°37' E 135°26'0 0.0
2016-May-05 04:25N 34°37' E 135°26'0 0.0
2016-May-05 03:31N 34°37' E 135°26'0 0.0
2016-May-05 02:25N 34°37' E 135°26'0 0.0
2016-May-05 01:31N 34°37' E 135°26'0 0.0
2016-May-05 00:30N 34°37' E 135°26'0 0.0
2016-May-04 23:31N 34°37' E 135°26'0 0.0
2016-May-04 22:31N 34°37' E 135°26'0 0.0
2016-May-04 21:31N 34°37' E 135°26'5 5.7
2016-May-04 20:33N 34°36' E 135°19'1817.8
2016-May-04 19:33N 34°37' E 134°58'1 0.0
2016-May-03 14:33N 34°38' E 134°58'1716.9
2016-May-03 13:33N 34°36' E 135°19'6 5.6
2016-May-03 12:31N 34°37' E 135°26'0 0.0
2016-May-03 11:31N 34°37' E 135°26'0 0.0
2016-May-03 10:25N 34°37' E 135°26'0 0.0
2016-May-03 09:31N 34°37' E 135°26'0 0.0
2016-May-03 08:31N 34°37' E 135°26'0 0.0
2016-May-03 07:31N 34°37' E 135°26'0 0.0
2016-May-03 06:31N 34°37' E 135°26'0 0.0
2016-May-03 05:31N 34°37' E 135°26'0 0.0
2016-May-03 04:25N 34°37' E 135°26'0 0.0
2016-May-03 03:25N 34°37' E 135°26'0 0.0
2016-May-03 02:31N 34°37' E 135°26'0 0.0
2016-May-03 01:31N 34°37' E 135°26'0 0.0
2016-May-03 00:25N 34°37' E 135°26'0 0.0
2016-May-02 23:25N 34°37' E 135°26'0 0.0
2016-May-02 22:25N 34°37' E 135°26'0 0.0
2016-May-02 21:25N 34°37' E 135°26'6 6.6
2016-May-02 20:33N 34°36' E 135°19'1918.1
2016-May-02 19:32N 34°36' E 134°56'2 0.1
2016-May-01 14:33N 34°37' E 134°58'1716.7
2016-May-01 13:33N 34°37' E 135°18'6 6.2
2016-May-01 12:31N 34°37' E 135°26'0 0.0
2016-May-01 11:31N 34°37' E 135°26'0 0.0
2016-May-01 10:31N 34°37' E 135°26'0 0.0
2016-May-01 09:07N 34°37' E 135°26'0 0.0
2016-May-01 08:31N 34°37' E 135°26'0 0.0
2016-May-01 07:25N 34°37' E 135°26'0 0.0
2016-May-01 06:25N 34°37' E 135°26'0 0.0
2016-May-01 05:31N 34°37' E 135°26'0 0.0
2016-May-01 04:31N 34°37' E 135°26'0 0.0
2016-May-01 03:31N 34°37' E 135°26'0 0.0
2016-May-01 02:25N 34°37' E 135°26'0 0.0
2016-May-01 01:31N 34°37' E 135°26'0 0.0
2016-May-01 00:31N 34°37' E 135°26'0 0.0
2016-Apr-30 23:25N 34°37' E 135°26'0 0.0
2016-Apr-30 22:31N 34°37' E 135°26'0 0.0
2016-Apr-30 21:31N 34°37' E 135°26'6 5.9
2016-Apr-30 20:34N 34°36' E 135°19'1818.0
2016-Apr-30 19:33N 34°36' E 134°57'1 0.0
2016-Apr-29 14:33N 34°37' E 134°58'1817.9
2016-Apr-29 13:33N 34°37' E 135°19'5 4.1
2016-Apr-29 12:17N 34°37' E 135°26'0 0.0
2016-Apr-29 11:29N 34°37' E 135°26'0 0.0
2016-Apr-29 10:29N 34°37' E 135°26'0 0.0
2016-Apr-29 09:11N 34°37' E 135°26'0 0.0
2016-Apr-29 08:29N 34°37' E 135°26'0 0.0
2016-Apr-29 07:29N 34°37' E 135°26'0 0.0
2016-Apr-29 06:23N 34°37' E 135°26'0 0.0
2016-Apr-29 04:23N 34°37' E 135°26'0 0.0
2016-Apr-29 03:29N 34°37' E 135°26'0 0.0
2016-Apr-29 02:23N 34°37' E 135°26'0 0.0
2016-Apr-29 01:29N 34°37' E 135°26'0 0.0
2016-Apr-29 00:29N 34°37' E 135°26'0 0.0
2016-Apr-28 23:29N 34°37' E 135°26'0 0.0
2016-Apr-28 22:17N 34°37' E 135°26'0 0.0
2016-Apr-28 21:17N 34°37' E 135°26'912.6
2016-Apr-28 20:33N 34°34' E 135°15'1919.0
2016-Apr-28 19:33N 34°34' E 134°52'5 0.2
2016-Apr-27 14:33N 34°37' E 134°57'1918.9
2016-Apr-27 13:34N 34°37' E 135°20'5 3.8
2016-Apr-27 12:23N 34°37' E 135°26'0 0.0
2016-Apr-27 11:29N 34°37' E 135°26'0 0.0
2016-Apr-27 10:23N 34°37' E 135°26'0 0.0
2016-Apr-27 09:29N 34°37' E 135°26'0 0.0
2016-Apr-27 08:29N 34°37' E 135°26'0 0.0
2016-Apr-27 07:29N 34°37' E 135°26'0 0.0
2016-Apr-27 06:29N 34°37' E 135°26'0 0.0
2016-Apr-27 04:29N 34°37' E 135°26'0 0.0
2016-Apr-27 03:29N 34°37' E 135°26'0 0.0
2016-Apr-27 02:29N 34°37' E 135°26'0 0.0
2016-Apr-27 01:29N 34°37' E 135°26'0 0.0
2016-Apr-27 00:11N 34°37' E 135°26'0 0.0
2016-Apr-26 23:29N 34°37' E 135°26'0 0.0
2016-Apr-26 22:17N 34°37' E 135°26'  
Track history (hours):
 
Tides and Currents Weather Stations Pressure Air Temp Water Temp Dewpoint Dewpoint Depression Visibility Wind Speed Wind Dir Waves Ship Positions

Orange8

Last reported at 2016-May-06 21:31 UTC. Time now 2016-May-06 22:28 UTC.
Position N 34°37' E 135°26'.

Length 164 m; draft 5 m.

Type: Passenger vessel. MMSI: 431501603.

Date/timePositionNaut miles runAvg speedWind from/ knotsBaromVisibWave heightAir tempDewpointWater temp
2016-May-06 21:31N 34°37' E 135°26'6 6.5
2016-May-06 20:33N 34°36' E 135°18'1817.7
2016-May-06 19:33N 34°36' E 134°57'1 0.0
2016-May-05 14:33N 34°37' E 134°56'1818.2
2016-May-05 13:34N 34°37' E 135°18'6 5.9
2016-May-05 12:31N 34°37' E 135°26'0 0.0
2016-May-05 11:31N 34°37' E 135°26'0 0.0
2016-May-05 10:31N 34°37' E 135°26'0 0.0
2016-May-05 09:30N 34°37' E 135°26'0 0.0
2016-May-05 08:31N 34°37' E 135°26'0 0.0
2016-May-05 07:30N 34°37' E 135°26'0 0.0
2016-May-05 06:25N 34°37' E 135°26'0 0.0
2016-May-05 05:31N 34°37' E 135°26'0 0.0
2016-May-05 04:25N 34°37' E 135°26'0 0.0
2016-May-05 03:31N 34°37' E 135°26'0 0.0
2016-May-05 02:25N 34°37' E 135°26'0 0.0
2016-May-05 01:31N 34°37' E 135°26'0 0.0
2016-May-05 00:30N 34°37' E 135°26'0 0.0
2016-May-04 23:31N 34°37' E 135°26'0 0.0
2016-May-04 22:31N 34°37' E 135°26'0 0.0
2016-May-04 21:31N 34°37' E 135°26'5 5.7
2016-May-04 20:33N 34°36' E 135°19'1817.8
2016-May-04 19:33N 34°37' E 134°58'1 0.0
2016-May-03 14:33N 34°38' E 134°58'1716.9
2016-May-03 13:33N 34°36' E 135°19'6 5.6
2016-May-03 12:31N 34°37' E 135°26'0 0.0
2016-May-03 11:31N 34°37' E 135°26'0 0.0
2016-May-03 10:25N 34°37' E 135°26'0 0.0
2016-May-03 09:31N 34°37' E 135°26'0 0.0
2016-May-03 08:31N 34°37' E 135°26'0 0.0
2016-May-03 07:31N 34°37' E 135°26'0 0.0
2016-May-03 06:31N 34°37' E 135°26'0 0.0
2016-May-03 05:31N 34°37' E 135°26'0 0.0
2016-May-03 04:25N 34°37' E 135°26'0 0.0
2016-May-03 03:25N 34°37' E 135°26'0 0.0
2016-May-03 02:31N 34°37' E 135°26'0 0.0
2016-May-03 01:31N 34°37' E 135°26'0 0.0
2016-May-03 00:25N 34°37' E 135°26'0 0.0
2016-May-02 23:25N 34°37' E 135°26'0 0.0
2016-May-02 22:25N 34°37' E 135°26'0 0.0
2016-May-02 21:25N 34°37' E 135°26'6 6.6
2016-May-02 20:33N 34°36' E 135°19'1918.1
2016-May-02 19:32N 34°36' E 134°56'2 0.1
2016-May-01 14:33N 34°37' E 134°58'1716.7
2016-May-01 13:33N 34°37' E 135°18'6 6.2
2016-May-01 12:31N 34°37' E 135°26'0 0.0
2016-May-01 11:31N 34°37' E 135°26'0 0.0
2016-May-01 10:31N 34°37' E 135°26'0 0.0
2016-May-01 09:07N 34°37' E 135°26'0 0.0
2016-May-01 08:31N 34°37' E 135°26'0 0.0
2016-May-01 07:25N 34°37' E 135°26'0 0.0
2016-May-01 06:25N 34°37' E 135°26'0 0.0
2016-May-01 05:31N 34°37' E 135°26'0 0.0
2016-May-01 04:31N 34°37' E 135°26'0 0.0
2016-May-01 03:31N 34°37' E 135°26'0 0.0
2016-May-01 02:25N 34°37' E 135°26'0 0.0
2016-May-01 01:31N 34°37' E 135°26'0 0.0
2016-May-01 00:31N 34°37' E 135°26'0 0.0
2016-Apr-30 23:25N 34°37' E 135°26'0 0.0
2016-Apr-30 22:31N 34°37' E 135°26'0 0.0
2016-Apr-30 21:31N 34°37' E 135°26'6 5.9
2016-Apr-30 20:34N 34°36' E 135°19'1818.0
2016-Apr-30 19:33N 34°36' E 134°57'1 0.0
2016-Apr-29 14:33N 34°37' E 134°58'1817.9
2016-Apr-29 13:33N 34°37' E 135°19'5 4.1
2016-Apr-29 12:17N 34°37' E 135°26'0 0.0
2016-Apr-29 11:29N 34°37' E 135°26'0 0.0
2016-Apr-29 10:29N 34°37' E 135°26'0 0.0
2016-Apr-29 09:11N 34°37' E 135°26'0 0.0
2016-Apr-29 08:29N 34°37' E 135°26'0 0.0
2016-Apr-29 07:29N 34°37' E 135°26'0 0.0
2016-Apr-29 06:23N 34°37' E 135°26'0 0.0
2016-Apr-29 04:23N 34°37' E 135°26'0 0.0
2016-Apr-29 03:29N 34°37' E 135°26'0 0.0
2016-Apr-29 02:23N 34°37' E 135°26'0 0.0
2016-Apr-29 01:29N 34°37' E 135°26'0 0.0
2016-Apr-29 00:29N 34°37' E 135°26'0 0.0
2016-Apr-28 23:29N 34°37' E 135°26'0 0.0
2016-Apr-28 22:17N 34°37' E 135°26'0 0.0
2016-Apr-28 21:17N 34°37' E 135°26'912.6
2016-Apr-28 20:33N 34°34' E 135°15'1919.0
2016-Apr-28 19:33N 34°34' E 134°52'5 0.2
2016-Apr-27 14:33N 34°37' E 134°57'1918.9
2016-Apr-27 13:34N 34°37' E 135°20'5 3.8
2016-Apr-27 12:23N 34°37' E 135°26'0 0.0
2016-Apr-27 11:29N 34°37' E 135°26'0 0.0
2016-Apr-27 10:23N 34°37' E 135°26'0 0.0
2016-Apr-27 09:29N 34°37' E 135°26'0 0.0
2016-Apr-27 08:29N 34°37' E 135°26'0 0.0
2016-Apr-27 07:29N 34°37' E 135°26'0 0.0
2016-Apr-27 06:29N 34°37' E 135°26'0 0.0
2016-Apr-27 04:29N 34°37' E 135°26'0 0.0
2016-Apr-27 03:29N 34°37' E 135°26'0 0.0
2016-Apr-27 02:29N 34°37' E 135°26'0 0.0
2016-Apr-27 01:29N 34°37' E 135°26'0 0.0
2016-Apr-27 00:11N 34°37' E 135°26'0 0.0
2016-Apr-26 23:29N 34°37' E 135°26'0 0.0
2016-Apr-26 22:17N 34°37' E 135°26'  

Dump ship's entire track history